sensor_id;sensor_type;location;lat;lon;timestamp;temperature;humidity
5697;DHT22;2873;50.966;7.210;2022-08-01T00:00:38;22.70;99.90
5697;DHT22;2873;50.966;7.210;2022-08-01T00:03:04;22.70;99.90
5697;DHT22;2873;50.966;7.210;2022-08-01T00:05:30;22.70;99.90
5697;DHT22;2873;50.966;7.210;2022-08-01T00:07:55;22.60;99.90
5697;DHT22;2873;50.966;7.210;2022-08-01T00:10:21;22.60;99.90
5697;DHT22;2873;50.966;7.210;2022-08-01T00:12:47;22.70;99.90
5697;DHT22;2873;50.966;7.210;2022-08-01T00:15:14;22.70;99.90
5697;DHT22;2873;50.966;7.210;2022-08-01T00:17:40;22.50;99.90
5697;DHT22;2873;50.966;7.210;2022-08-01T00:20:08;22.60;99.90
5697;DHT22;2873;50.966;7.210;2022-08-01T00:22:35;22.50;99.90
5697;DHT22;2873;50.966;7.210;2022-08-01T00:25:01;22.50;99.90
5697;DHT22;2873;50.966;7.210;2022-08-01T00:27:27;22.50;99.90
5697;DHT22;2873;50.966;7.210;2022-08-01T00:29:52;22.40;99.90
5697;DHT22;2873;50.966;7.210;2022-08-01T00:32:18;22.40;99.90
5697;DHT22;2873;50.966;7.210;2022-08-01T00:34:44;22.40;99.90
5697;DHT22;2873;50.966;7.210;2022-08-01T00:37:09;22.50;99.90
5697;DHT22;2873;50.966;7.210;2022-08-01T00:39:35;22.40;99.90
5697;DHT22;2873;50.966;7.210;2022-08-01T00:42:06;22.40;99.90
5697;DHT22;2873;50.966;7.210;2022-08-01T00:44:33;22.30;99.90
5697;DHT22;2873;50.966;7.210;2022-08-01T00:46:58;22.30;99.90
5697;DHT22;2873;50.966;7.210;2022-08-01T00:49:24;22.40;99.90
5697;DHT22;2873;50.966;7.210;2022-08-01T00:51:50;22.50;99.90
5697;DHT22;2873;50.966;7.210;2022-08-01T00:54:15;22.40;99.90
5697;DHT22;2873;50.966;7.210;2022-08-01T00:56:41;22.30;99.90
5697;DHT22;2873;50.966;7.210;2022-08-01T00:59:07;22.20;99.90
5697;DHT22;2873;50.966;7.210;2022-08-01T01:01:33;22.30;99.90
5697;DHT22;2873;50.966;7.210;2022-08-01T01:04:00;22.20;99.90
5697;DHT22;2873;50.966;7.210;2022-08-01T01:06:55;22.30;99.90
5697;DHT22;2873;50.966;7.210;2022-08-01T01:12:22;22.10;99.90
5697;DHT22;2873;50.966;7.210;2022-08-01T01:15:37;22.00;99.90
5697;DHT22;2873;50.966;7.210;2022-08-01T01:20:50;22.10;99.90
5697;DHT22;2873;50.966;7.210;2022-08-01T01:23:40;22.00;99.90
5697;DHT22;2873;50.966;7.210;2022-08-01T01:26:29;22.00;99.90
5697;DHT22;2873;50.966;7.210;2022-08-01T01:31:36;22.00;99.90
5697;DHT22;2873;50.966;7.210;2022-08-01T01:34:05;22.10;99.90
5697;DHT22;2873;50.966;7.210;2022-08-01T01:36:33;22.00;99.90
5697;DHT22;2873;50.966;7.210;2022-08-01T01:39:00;22.00;99.90
5697;DHT22;2873;50.966;7.210;2022-08-01T01:41:27;22.00;99.90
5697;DHT22;2873;50.966;7.210;2022-08-01T01:43:54;21.90;99.90
5697;DHT22;2873;50.966;7.210;2022-08-01T01:46:23;22.00;99.90
5697;DHT22;2873;50.966;7.210;2022-08-01T01:48:50;22.00;99.90
5697;DHT22;2873;50.966;7.210;2022-08-01T01:51:17;22.00;99.90
5697;DHT22;2873;50.966;7.210;2022-08-01T01:53:47;22.00;99.90
5697;DHT22;2873;50.966;7.210;2022-08-01T01:56:16;22.00;99.90
5697;DHT22;2873;50.966;7.210;2022-08-01T01:58:43;21.90;99.90
5697;DHT22;2873;50.966;7.210;2022-08-01T02:01:10;22.00;99.90
5697;DHT22;2873;50.966;7.210;2022-08-01T02:03:38;21.90;99.90
5697;DHT22;2873;50.966;7.210;2022-08-01T02:06:05;21.90;99.90
5697;DHT22;2873;50.966;7.210;2022-08-01T02:08:32;21.70;99.90
5697;DHT22;2873;50.966;7.210;2022-08-01T02:11:00;21.80;99.90
5697;DHT22;2873;50.966;7.210;2022-08-01T02:13:52;21.90;99.90
5697;DHT22;2873;50.966;7.210;2022-08-01T02:16:19;21.70;99.90
5697;DHT22;2873;50.966;7.210;2022-08-01T02:18:46;21.60;99.90
5697;DHT22;2873;50.966;7.210;2022-08-01T02:21:14;21.60;99.90
5697;DHT22;2873;50.966;7.210;2022-08-01T02:23:42;21.70;99.90
5697;DHT22;2873;50.966;7.210;2022-08-01T02:26:13;21.80;99.90
5697;DHT22;2873;50.966;7.210;2022-08-01T02:29:13;21.80;99.90
5697;DHT22;2873;50.966;7.210;2022-08-01T02:31:41;21.80;99.90
5697;DHT22;2873;50.966;7.210;2022-08-01T02:34:14;21.70;99.90
5697;DHT22;2873;50.966;7.210;2022-08-01T02:36:44;21.80;99.90
5697;DHT22;2873;50.966;7.210;2022-08-01T02:39:13;21.80;99.90
5697;DHT22;2873;50.966;7.210;2022-08-01T02:41:47;21.80;99.90
5697;DHT22;2873;50.966;7.210;2022-08-01T02:44:21;21.70;99.90
5697;DHT22;2873;50.966;7.210;2022-08-01T02:46:56;21.70;99.90
5697;DHT22;2873;50.966;7.210;2022-08-01T02:49:23;21.70;99.90
5697;DHT22;2873;50.966;7.210;2022-08-01T02:51:52;21.60;99.90
5697;DHT22;2873;50.966;7.210;2022-08-01T02:54:21;21.60;99.90
5697;DHT22;2873;50.966;7.210;2022-08-01T02:56:48;21.60;99.90
5697;DHT22;2873;50.966;7.210;2022-08-01T02:59:18;21.60;99.90
5697;DHT22;2873;50.966;7.210;2022-08-01T03:01:45;21.50;99.90
5697;DHT22;2873;50.966;7.210;2022-08-01T03:04:12;21.50;99.90
5697;DHT22;2873;50.966;7.210;2022-08-01T03:06:40;21.40;99.90
5697;DHT22;2873;50.966;7.210;2022-08-01T03:09:07;21.50;99.90
5697;DHT22;2873;50.966;7.210;2022-08-01T03:11:36;21.40;99.90
5697;DHT22;2873;50.966;7.210;2022-08-01T03:14:07;21.50;99.90
5697;DHT22;2873;50.966;7.210;2022-08-01T03:16:35;21.30;99.90
5697;DHT22;2873;50.966;7.210;2022-08-01T03:19:03;21.30;99.90
5697;DHT22;2873;50.966;7.210;2022-08-01T03:21:29;21.40;99.90
5697;DHT22;2873;50.966;7.210;2022-08-01T03:23:57;21.50;99.90
5697;DHT22;2873;50.966;7.210;2022-08-01T03:26:30;21.40;99.90
5697;DHT22;2873;50.966;7.210;2022-08-01T03:28:59;21.40;99.90
5697;DHT22;2873;50.966;7.210;2022-08-01T03:31:27;21.40;99.90
5697;DHT22;2873;50.966;7.210;2022-08-01T03:33:53;21.30;99.90
5697;DHT22;2873;50.966;7.210;2022-08-01T03:36:22;21.40;99.90
5697;DHT22;2873;50.966;7.210;2022-08-01T03:38:50;21.30;99.90
5697;DHT22;2873;50.966;7.210;2022-08-01T03:41:20;21.40;99.90
5697;DHT22;2873;50.966;7.210;2022-08-01T03:43:57;21.30;99.90
5697;DHT22;2873;50.966;7.210;2022-08-01T03:46:32;21.40;99.90
5697;DHT22;2873;50.966;7.210;2022-08-01T03:49:01;21.30;99.90
5697;DHT22;2873;50.966;7.210;2022-08-01T03:51:30;21.40;99.90
5697;DHT22;2873;50.966;7.210;2022-08-01T03:53:58;21.30;99.90
5697;DHT22;2873;50.966;7.210;2022-08-01T03:56:25;21.30;99.90
5697;DHT22;2873;50.966;7.210;2022-08-01T03:58:52;21.20;99.90
5697;DHT22;2873;50.966;7.210;2022-08-01T04:01:18;21.10;99.90
5697;DHT22;2873;50.966;7.210;2022-08-01T04:03:44;21.20;99.90
5697;DHT22;2873;50.966;7.210;2022-08-01T04:06:10;21.10;99.90
5697;DHT22;2873;50.966;7.210;2022-08-01T04:08:37;21.10;99.90
5697;DHT22;2873;50.966;7.210;2022-08-01T04:11:03;21.30;99.90
5697;DHT22;2873;50.966;7.210;2022-08-01T04:13:30;21.10;99.90
5697;DHT22;2873;50.966;7.210;2022-08-01T04:15:56;21.20;99.90
5697;DHT22;2873;50.966;7.210;2022-08-01T04:18:22;21.20;99.90
5697;DHT22;2873;50.966;7.210;2022-08-01T04:20:47;21.10;99.90
5697;DHT22;2873;50.966;7.210;2022-08-01T04:23:16;21.20;99.90
5697;DHT22;2873;50.966;7.210;2022-08-01T04:25:43;21.30;99.90
5697;DHT22;2873;50.966;7.210;2022-08-01T04:28:10;21.20;99.90
5697;DHT22;2873;50.966;7.210;2022-08-01T04:30:42;21.20;99.90
5697;DHT22;2873;50.966;7.210;2022-08-01T04:33:10;21.30;99.90
5697;DHT22;2873;50.966;7.210;2022-08-01T04:35:38;21.30;99.90
5697;DHT22;2873;50.966;7.210;2022-08-01T04:38:07;21.30;99.90
5697;DHT22;2873;50.966;7.210;2022-08-01T04:40:35;21.30;99.90
5697;DHT22;2873;50.966;7.210;2022-08-01T04:43:01;21.20;99.90
5697;DHT22;2873;50.966;7.210;2022-08-01T04:45:28;21.40;99.90
5697;DHT22;2873;50.966;7.210;2022-08-01T04:47:54;21.20;99.90
5697;DHT22;2873;50.966;7.210;2022-08-01T04:50:22;21.20;99.90
5697;DHT22;2873;50.966;7.210;2022-08-01T04:52:48;21.20;99.90
5697;DHT22;2873;50.966;7.210;2022-08-01T04:55:13;21.30;99.90
5697;DHT22;2873;50.966;7.210;2022-08-01T04:57:41;21.40;99.90
5697;DHT22;2873;50.966;7.210;2022-08-01T05:00:08;21.40;99.90
5697;DHT22;2873;50.966;7.210;2022-08-01T05:02:34;21.30;99.90
5697;DHT22;2873;50.966;7.210;2022-08-01T05:04:59;21.30;99.90
5697;DHT22;2873;50.966;7.210;2022-08-01T05:07:25;21.40;99.90
5697;DHT22;2873;50.966;7.210;2022-08-01T05:09:51;21.40;99.90
5697;DHT22;2873;50.966;7.210;2022-08-01T05:12:16;21.40;99.90
5697;DHT22;2873;50.966;7.210;2022-08-01T05:14:42;21.40;99.90
5697;DHT22;2873;50.966;7.210;2022-08-01T05:17:09;21.30;99.90
5697;DHT22;2873;50.966;7.210;2022-08-01T05:19:36;21.40;99.90
5697;DHT22;2873;50.966;7.210;2022-08-01T05:22:04;21.30;99.90
5697;DHT22;2873;50.966;7.210;2022-08-01T05:24:34;21.30;99.90
5697;DHT22;2873;50.966;7.210;2022-08-01T05:27:00;21.40;99.90
5697;DHT22;2873;50.966;7.210;2022-08-01T05:29:26;21.50;99.90
5697;DHT22;2873;50.966;7.210;2022-08-01T05:31:52;21.50;99.90
5697;DHT22;2873;50.966;7.210;2022-08-01T05:34:18;21.60;99.90
5697;DHT22;2873;50.966;7.210;2022-08-01T05:36:47;21.60;99.90
5697;DHT22;2873;50.966;7.210;2022-08-01T05:39:13;21.60;99.90
5697;DHT22;2873;50.966;7.210;2022-08-01T05:41:40;21.70;99.90
5697;DHT22;2873;50.966;7.210;2022-08-01T05:44:05;21.70;99.90
5697;DHT22;2873;50.966;7.210;2022-08-01T05:46:32;21.80;99.90
5697;DHT22;2873;50.966;7.210;2022-08-01T05:48:58;22.00;99.90
5697;DHT22;2873;50.966;7.210;2022-08-01T05:51:24;22.10;99.90
5697;DHT22;2873;50.966;7.210;2022-08-01T05:53:50;22.20;99.90
5697;DHT22;2873;50.966;7.210;2022-08-01T05:56:16;22.10;99.90
5697;DHT22;2873;50.966;7.210;2022-08-01T05:58:42;22.10;99.90
5697;DHT22;2873;50.966;7.210;2022-08-01T06:01:07;22.20;99.90
5697;DHT22;2873;50.966;7.210;2022-08-01T06:03:33;22.20;99.90
5697;DHT22;2873;50.966;7.210;2022-08-01T06:05:59;22.30;99.90
5697;DHT22;2873;50.966;7.210;2022-08-01T06:08:25;22.40;99.90
5697;DHT22;2873;50.966;7.210;2022-08-01T06:10:51;22.50;99.90
5697;DHT22;2873;50.966;7.210;2022-08-01T06:13:17;22.60;99.90
5697;DHT22;2873;50.966;7.210;2022-08-01T06:15:43;22.60;99.90
5697;DHT22;2873;50.966;7.210;2022-08-01T06:18:08;22.60;99.90
5697;DHT22;2873;50.966;7.210;2022-08-01T06:20:34;22.70;99.90
5697;DHT22;2873;50.966;7.210;2022-08-01T06:23:00;22.80;99.90
5697;DHT22;2873;50.966;7.210;2022-08-01T06:25:25;22.90;99.90
5697;DHT22;2873;50.966;7.210;2022-08-01T06:27:51;22.90;99.90
5697;DHT22;2873;50.966;7.210;2022-08-01T06:30:17;22.90;99.90
5697;DHT22;2873;50.966;7.210;2022-08-01T06:32:42;22.90;99.90
5697;DHT22;2873;50.966;7.210;2022-08-01T06:35:08;22.90;99.90
5697;DHT22;2873;50.966;7.210;2022-08-01T06:37:33;22.90;99.90
5697;DHT22;2873;50.966;7.210;2022-08-01T06:40:04;23.10;99.90
5697;DHT22;2873;50.966;7.210;2022-08-01T06:42:30;22.90;99.90
5697;DHT22;2873;50.966;7.210;2022-08-01T06:45:08;22.90;99.90
5697;DHT22;2873;50.966;7.210;2022-08-01T06:47:35;22.90;99.90
5697;DHT22;2873;50.966;7.210;2022-08-01T06:50:01;22.90;99.90
5697;DHT22;2873;50.966;7.210;2022-08-01T06:52:27;22.90;99.90
5697;DHT22;2873;50.966;7.210;2022-08-01T06:54:52;22.90;99.90
5697;DHT22;2873;50.966;7.210;2022-08-01T06:57:18;22.90;99.90
5697;DHT22;2873;50.966;7.210;2022-08-01T06:59:44;23.00;99.90
5697;DHT22;2873;50.966;7.210;2022-08-01T07:02:09;23.00;99.90
5697;DHT22;2873;50.966;7.210;2022-08-01T07:04:35;23.00;99.90
5697;DHT22;2873;50.966;7.210;2022-08-01T07:07:01;23.10;99.90
5697;DHT22;2873;50.966;7.210;2022-08-01T07:09:27;23.10;99.90
5697;DHT22;2873;50.966;7.210;2022-08-01T07:11:53;23.10;99.90
5697;DHT22;2873;50.966;7.210;2022-08-01T07:14:20;23.30;99.90
5697;DHT22;2873;50.966;7.210;2022-08-01T07:16:46;23.40;99.90
5697;DHT22;2873;50.966;7.210;2022-08-01T07:19:12;23.30;99.90
5697;DHT22;2873;50.966;7.210;2022-08-01T07:21:37;23.30;99.90
5697;DHT22;2873;50.966;7.210;2022-08-01T07:24:05;23.30;99.90
5697;DHT22;2873;50.966;7.210;2022-08-01T07:26:31;23.40;99.90
5697;DHT22;2873;50.966;7.210;2022-08-01T07:28:56;23.40;99.90
5697;DHT22;2873;50.966;7.210;2022-08-01T07:31:22;23.40;99.90
5697;DHT22;2873;50.966;7.210;2022-08-01T07:33:48;23.30;99.90
5697;DHT22;2873;50.966;7.210;2022-08-01T07:36:15;23.30;99.90
5697;DHT22;2873;50.966;7.210;2022-08-01T07:38:40;23.40;99.90
5697;DHT22;2873;50.966;7.210;2022-08-01T07:41:06;23.40;99.90
5697;DHT22;2873;50.966;7.210;2022-08-01T07:43:31;23.50;99.90
5697;DHT22;2873;50.966;7.210;2022-08-01T07:45:57;23.60;99.90
5697;DHT22;2873;50.966;7.210;2022-08-01T07:48:23;23.60;99.90
5697;DHT22;2873;50.966;7.210;2022-08-01T07:50:50;23.70;99.90
5697;DHT22;2873;50.966;7.210;2022-08-01T07:53:16;23.70;99.90
5697;DHT22;2873;50.966;7.210;2022-08-01T07:55:42;23.70;99.90
5697;DHT22;2873;50.966;7.210;2022-08-01T07:58:08;23.80;99.90
5697;DHT22;2873;50.966;7.210;2022-08-01T08:00:33;23.90;99.90
5697;DHT22;2873;50.966;7.210;2022-08-01T08:02:59;23.90;99.90
5697;DHT22;2873;50.966;7.210;2022-08-01T08:05:26;24.10;99.90
5697;DHT22;2873;50.966;7.210;2022-08-01T08:07:51;24.10;99.90
5697;DHT22;2873;50.966;7.210;2022-08-01T08:10:17;24.10;99.90
5697;DHT22;2873;50.966;7.210;2022-08-01T08:12:42;24.00;99.90
5697;DHT22;2873;50.966;7.210;2022-08-01T08:15:08;23.90;99.90
5697;DHT22;2873;50.966;7.210;2022-08-01T08:17:34;23.90;99.90
5697;DHT22;2873;50.966;7.210;2022-08-01T08:20:01;24.00;99.90
5697;DHT22;2873;50.966;7.210;2022-08-01T08:22:27;24.00;99.90
5697;DHT22;2873;50.966;7.210;2022-08-01T08:24:53;23.90;99.90
5697;DHT22;2873;50.966;7.210;2022-08-01T08:27:18;24.00;99.90
5697;DHT22;2873;50.966;7.210;2022-08-01T08:29:44;24.20;99.90
5697;DHT22;2873;50.966;7.210;2022-08-01T08:32:10;24.30;99.90
5697;DHT22;2873;50.966;7.210;2022-08-01T08:34:35;24.30;99.90
5697;DHT22;2873;50.966;7.210;2022-08-01T08:37:01;24.30;99.90
5697;DHT22;2873;50.966;7.210;2022-08-01T08:39:26;24.30;99.90
5697;DHT22;2873;50.966;7.210;2022-08-01T08:41:55;24.20;99.90
5697;DHT22;2873;50.966;7.210;2022-08-01T08:44:21;24.20;99.90
5697;DHT22;2873;50.966;7.210;2022-08-01T08:46:49;24.20;99.90
5697;DHT22;2873;50.966;7.210;2022-08-01T08:49:19;24.20;99.90
5697;DHT22;2873;50.966;7.210;2022-08-01T08:51:48;24.30;99.90
5697;DHT22;2873;50.966;7.210;2022-08-01T08:54:14;24.40;99.90
5697;DHT22;2873;50.966;7.210;2022-08-01T08:56:40;24.60;99.90
5697;DHT22;2873;50.966;7.210;2022-08-01T08:59:07;24.80;99.90
5697;DHT22;2873;50.966;7.210;2022-08-01T09:01:33;24.80;99.90
5697;DHT22;2873;50.966;7.210;2022-08-01T09:04:02;24.90;99.90
5697;DHT22;2873;50.966;7.210;2022-08-01T09:06:28;25.10;99.90
5697;DHT22;2873;50.966;7.210;2022-08-01T09:08:55;25.20;99.90
5697;DHT22;2873;50.966;7.210;2022-08-01T09:11:21;25.20;99.90
5697;DHT22;2873;50.966;7.210;2022-08-01T09:16:31;25.10;99.90
5697;DHT22;2873;50.966;7.210;2022-08-01T09:19:18;25.00;99.90
5697;DHT22;2873;50.966;7.210;2022-08-01T09:21:57;25.10;99.90
5697;DHT22;2873;50.966;7.210;2022-08-01T09:24:25;25.00;99.90
5697;DHT22;2873;50.966;7.210;2022-08-01T09:26:50;25.00;99.90
5697;DHT22;2873;50.966;7.210;2022-08-01T09:29:26;25.20;99.90
5697;DHT22;2873;50.966;7.210;2022-08-01T09:31:51;25.20;99.90
5697;DHT22;2873;50.966;7.210;2022-08-01T09:34:30;25.40;99.90
5697;DHT22;2873;50.966;7.210;2022-08-01T09:37:01;25.40;99.90
5697;DHT22;2873;50.966;7.210;2022-08-01T09:39:30;25.40;99.90
5697;DHT22;2873;50.966;7.210;2022-08-01T09:41:58;25.50;99.90
5697;DHT22;2873;50.966;7.210;2022-08-01T09:44:42;25.40;99.90
5697;DHT22;2873;50.966;7.210;2022-08-01T09:47:08;25.50;99.90
5697;DHT22;2873;50.966;7.210;2022-08-01T09:49:36;25.60;99.90
5697;DHT22;2873;50.966;7.210;2022-08-01T09:52:21;25.80;99.90
5697;DHT22;2873;50.966;7.210;2022-08-01T09:54:58;25.90;99.90
5697;DHT22;2873;50.966;7.210;2022-08-01T09:57:26;26.10;99.90
5697;DHT22;2873;50.966;7.210;2022-08-01T09:59:57;26.00;99.90
5697;DHT22;2873;50.966;7.210;2022-08-01T10:02:35;26.20;99.90
5697;DHT22;2873;50.966;7.210;2022-08-01T10:05:03;26.40;99.90
5697;DHT22;2873;50.966;7.210;2022-08-01T10:07:29;26.40;99.90
5697;DHT22;2873;50.966;7.210;2022-08-01T10:09:55;26.40;99.90
5697;DHT22;2873;50.966;7.210;2022-08-01T10:12:23;26.50;99.90
5697;DHT22;2873;50.966;7.210;2022-08-01T10:14:50;26.40;99.90
5697;DHT22;2873;50.966;7.210;2022-08-01T10:17:19;26.50;99.90
5697;DHT22;2873;50.966;7.210;2022-08-01T10:19:46;26.60;99.90
5697;DHT22;2873;50.966;7.210;2022-08-01T10:22:14;26.70;99.90
5697;DHT22;2873;50.966;7.210;2022-08-01T10:24:44;27.00;99.90
5697;DHT22;2873;50.966;7.210;2022-08-01T10:27:14;27.20;99.90
5697;DHT22;2873;50.966;7.210;2022-08-01T10:30:01;27.30;99.90
5697;DHT22;2873;50.966;7.210;2022-08-01T10:32:31;27.40;99.90
5697;DHT22;2873;50.966;7.210;2022-08-01T10:34:58;27.40;99.90
5697;DHT22;2873;50.966;7.210;2022-08-01T10:37:24;27.60;99.90
5697;DHT22;2873;50.966;7.210;2022-08-01T10:39:54;27.70;99.90
5697;DHT22;2873;50.966;7.210;2022-08-01T10:42:20;27.60;99.90
5697;DHT22;2873;50.966;7.210;2022-08-01T10:44:47;27.50;99.90
5697;DHT22;2873;50.966;7.210;2022-08-01T10:47:25;27.40;99.90
5697;DHT22;2873;50.966;7.210;2022-08-01T10:52:24;27.20;99.90
5697;DHT22;2873;50.966;7.210;2022-08-01T10:55:04;27.40;99.90
5697;DHT22;2873;50.966;7.210;2022-08-01T10:57:46;27.50;99.90
5697;DHT22;2873;50.966;7.210;2022-08-01T11:00:22;27.70;99.90
5697;DHT22;2873;50.966;7.210;2022-08-01T11:03:01;27.90;99.90
5697;DHT22;2873;50.966;7.210;2022-08-01T11:05:31;27.80;99.90
5697;DHT22;2873;50.966;7.210;2022-08-01T11:08:03;27.80;99.90
5697;DHT22;2873;50.966;7.210;2022-08-01T11:10:42;27.70;99.90
5697;DHT22;2873;50.966;7.210;2022-08-01T11:13:08;27.70;99.90
5697;DHT22;2873;50.966;7.210;2022-08-01T11:15:37;27.60;99.90
5697;DHT22;2873;50.966;7.210;2022-08-01T11:21:01;27.90;99.90
5697;DHT22;2873;50.966;7.210;2022-08-01T11:23:28;28.00;99.90
5697;DHT22;2873;50.966;7.210;2022-08-01T11:28:22;28.40;99.90
5697;DHT22;2873;50.966;7.210;2022-08-01T11:39:18;29.30;99.90
5697;DHT22;2873;50.966;7.210;2022-08-01T11:41:29;29.30;99.90
5697;DHT22;2873;50.966;7.210;2022-08-01T11:43:56;29.40;99.90
5697;DHT22;2873;50.966;7.210;2022-08-01T11:46:45;29.50;99.90
5697;DHT22;2873;50.966;7.210;2022-08-01T11:52:26;30.50;99.90
5697;DHT22;2873;50.966;7.210;2022-08-01T11:54:57;31.60;99.90
5697;DHT22;2873;50.966;7.210;2022-08-01T11:57:26;32.50;99.90
5697;DHT22;2873;50.966;7.210;2022-08-01T11:59:56;33.30;99.90
5697;DHT22;2873;50.966;7.210;2022-08-01T12:02:24;32.90;99.90
5697;DHT22;2873;50.966;7.210;2022-08-01T12:04:52;32.60;99.90
5697;DHT22;2873;50.966;7.210;2022-08-01T12:07:19;32.40;99.90
5697;DHT22;2873;50.966;7.210;2022-08-01T12:09:46;32.00;99.90
5697;DHT22;2873;50.966;7.210;2022-08-01T12:12:15;31.50;99.90
5697;DHT22;2873;50.966;7.210;2022-08-01T12:15:03;31.30;99.90
5697;DHT22;2873;50.966;7.210;2022-08-01T12:17:34;31.10;99.90
5697;DHT22;2873;50.966;7.210;2022-08-01T12:20:01;30.80;99.90
5697;DHT22;2873;50.966;7.210;2022-08-01T12:22:27;30.50;99.90
5697;DHT22;2873;50.966;7.210;2022-08-01T12:24:53;30.40;99.90
5697;DHT22;2873;50.966;7.210;2022-08-01T12:27:25;30.20;99.90
5697;DHT22;2873;50.966;7.210;2022-08-01T12:29:51;30.30;99.90
5697;DHT22;2873;50.966;7.210;2022-08-01T12:32:31;30.40;99.90
5697;DHT22;2873;50.966;7.210;2022-08-01T12:35:07;30.90;99.90
5697;DHT22;2873;50.966;7.210;2022-08-01T12:38:01;31.40;99.90
5697;DHT22;2873;50.966;7.210;2022-08-01T12:40:32;31.50;99.90
5697;DHT22;2873;50.966;7.210;2022-08-01T12:43:00;31.60;99.90
5697;DHT22;2873;50.966;7.210;2022-08-01T12:45:49;31.50;99.90
5697;DHT22;2873;50.966;7.210;2022-08-01T12:48:17;31.20;99.90
5697;DHT22;2873;50.966;7.210;2022-08-01T12:50:46;30.80;99.90
5697;DHT22;2873;50.966;7.210;2022-08-01T12:53:13;30.50;99.90
5697;DHT22;2873;50.966;7.210;2022-08-01T12:55:45;30.30;99.90
5697;DHT22;2873;50.966;7.210;2022-08-01T12:58:13;30.00;99.90
5697;DHT22;2873;50.966;7.210;2022-08-01T13:00:40;30.00;99.90
5697;DHT22;2873;50.966;7.210;2022-08-01T13:05:52;30.10;99.90
5697;DHT22;2873;50.966;7.210;2022-08-01T13:08:22;30.30;99.90
5697;DHT22;2873;50.966;7.210;2022-08-01T13:10:49;30.90;99.90
5697;DHT22;2873;50.966;7.210;2022-08-01T13:13:16;31.50;99.90
5697;DHT22;2873;50.966;7.210;2022-08-01T13:15:43;31.80;99.90
5697;DHT22;2873;50.966;7.210;2022-08-01T13:18:30;32.20;99.90
5697;DHT22;2873;50.966;7.210;2022-08-01T13:21:08;32.40;99.90
5697;DHT22;2873;50.966;7.210;2022-08-01T13:23:34;32.30;99.90
5697;DHT22;2873;50.966;7.210;2022-08-01T13:26:00;32.30;99.90
5697;DHT22;2873;50.966;7.210;2022-08-01T13:28:26;32.30;99.90
5697;DHT22;2873;50.966;7.210;2022-08-01T13:31:06;32.00;99.90
5697;DHT22;2873;50.966;7.210;2022-08-01T13:33:44;31.70;99.90
5697;DHT22;2873;50.966;7.210;2022-08-01T13:36:10;31.50;99.90
5697;DHT22;2873;50.966;7.210;2022-08-01T13:38:36;31.40;99.90
5697;DHT22;2873;50.966;7.210;2022-08-01T13:41:20;31.40;99.90
5697;DHT22;2873;50.966;7.210;2022-08-01T13:43:46;31.00;99.90
5697;DHT22;2873;50.966;7.210;2022-08-01T13:46:11;30.80;99.90
5697;DHT22;2873;50.966;7.210;2022-08-01T13:48:37;30.60;99.90
5697;DHT22;2873;50.966;7.210;2022-08-01T13:51:03;30.40;99.90
5697;DHT22;2873;50.966;7.210;2022-08-01T13:53:28;30.20;99.90
5697;DHT22;2873;50.966;7.210;2022-08-01T13:55:54;30.20;99.90
5697;DHT22;2873;50.966;7.210;2022-08-01T13:58:20;30.30;99.90
5697;DHT22;2873;50.966;7.210;2022-08-01T14:00:45;30.40;99.90
5697;DHT22;2873;50.966;7.210;2022-08-01T14:03:12;30.40;99.90
5697;DHT22;2873;50.966;7.210;2022-08-01T14:05:37;30.40;99.90
5697;DHT22;2873;50.966;7.210;2022-08-01T14:08:03;30.30;99.90
5697;DHT22;2873;50.966;7.210;2022-08-01T14:10:29;30.40;99.90
5697;DHT22;2873;50.966;7.210;2022-08-01T14:12:55;30.40;99.90
5697;DHT22;2873;50.966;7.210;2022-08-01T14:15:22;30.30;99.90
5697;DHT22;2873;50.966;7.210;2022-08-01T14:17:48;30.20;99.90
5697;DHT22;2873;50.966;7.210;2022-08-01T14:20:14;30.20;99.90
5697;DHT22;2873;50.966;7.210;2022-08-01T14:22:39;30.00;99.90
5697;DHT22;2873;50.966;7.210;2022-08-01T14:25:06;29.80;99.90
5697;DHT22;2873;50.966;7.210;2022-08-01T14:27:32;29.70;99.90
5697;DHT22;2873;50.966;7.210;2022-08-01T14:30:02;29.70;99.90
5697;DHT22;2873;50.966;7.210;2022-08-01T14:32:27;29.80;99.90
5697;DHT22;2873;50.966;7.210;2022-08-01T14:34:53;29.70;99.90
5697;DHT22;2873;50.966;7.210;2022-08-01T14:37:19;29.60;99.90
5697;DHT22;2873;50.966;7.210;2022-08-01T14:39:44;29.60;99.90
5697;DHT22;2873;50.966;7.210;2022-08-01T14:42:10;29.60;99.90
5697;DHT22;2873;50.966;7.210;2022-08-01T14:44:35;29.50;99.90
5697;DHT22;2873;50.966;7.210;2022-08-01T14:47:01;29.50;99.90
5697;DHT22;2873;50.966;7.210;2022-08-01T14:49:29;29.40;99.90
5697;DHT22;2873;50.966;7.210;2022-08-01T14:51:55;29.40;99.90
5697;DHT22;2873;50.966;7.210;2022-08-01T14:54:20;29.40;99.90
5697;DHT22;2873;50.966;7.210;2022-08-01T14:56:46;29.30;99.90
5697;DHT22;2873;50.966;7.210;2022-08-01T14:59:12;29.40;99.90
5697;DHT22;2873;50.966;7.210;2022-08-01T15:01:37;29.50;99.90
5697;DHT22;2873;50.966;7.210;2022-08-01T15:04:03;29.70;99.90
5697;DHT22;2873;50.966;7.210;2022-08-01T15:06:28;29.70;99.90
5697;DHT22;2873;50.966;7.210;2022-08-01T15:08:54;29.70;99.90
5697;DHT22;2873;50.966;7.210;2022-08-01T15:11:20;29.70;99.90
5697;DHT22;2873;50.966;7.210;2022-08-01T15:13:46;29.60;99.90
5697;DHT22;2873;50.966;7.210;2022-08-01T15:16:31;29.60;99.90
5697;DHT22;2873;50.966;7.210;2022-08-01T15:18:57;29.50;99.90
5697;DHT22;2873;50.966;7.210;2022-08-01T15:21:23;29.50;99.90
5697;DHT22;2873;50.966;7.210;2022-08-01T15:23:48;29.40;99.90
5697;DHT22;2873;50.966;7.210;2022-08-01T15:26:14;29.40;99.90
5697;DHT22;2873;50.966;7.210;2022-08-01T15:28:39;29.30;99.90
5697;DHT22;2873;50.966;7.210;2022-08-01T15:31:05;29.40;99.90
5697;DHT22;2873;50.966;7.210;2022-08-01T15:33:30;29.30;99.90
5697;DHT22;2873;50.966;7.210;2022-08-01T15:35:56;29.40;99.90
5697;DHT22;2873;50.966;7.210;2022-08-01T15:38:21;29.40;99.90
5697;DHT22;2873;50.966;7.210;2022-08-01T15:40:47;29.30;99.90
5697;DHT22;2873;50.966;7.210;2022-08-01T15:43:12;29.30;99.90
5697;DHT22;2873;50.966;7.210;2022-08-01T15:45:38;29.40;99.90
5697;DHT22;2873;50.966;7.210;2022-08-01T15:48:04;29.40;99.90
5697;DHT22;2873;50.966;7.210;2022-08-01T15:50:30;29.30;99.90
5697;DHT22;2873;50.966;7.210;2022-08-01T15:52:55;29.30;99.90
5697;DHT22;2873;50.966;7.210;2022-08-01T15:55:21;29.30;99.90
5697;DHT22;2873;50.966;7.210;2022-08-01T15:57:46;29.30;99.90
5697;DHT22;2873;50.966;7.210;2022-08-01T16:00:12;29.30;99.90
5697;DHT22;2873;50.966;7.210;2022-08-01T16:02:39;29.30;99.90
5697;DHT22;2873;50.966;7.210;2022-08-01T16:05:05;29.20;99.90
5697;DHT22;2873;50.966;7.210;2022-08-01T16:07:31;29.20;99.90
5697;DHT22;2873;50.966;7.210;2022-08-01T16:09:57;29.20;99.90
5697;DHT22;2873;50.966;7.210;2022-08-01T16:12:22;29.20;99.90
5697;DHT22;2873;50.966;7.210;2022-08-01T16:14:48;29.20;99.90
5697;DHT22;2873;50.966;7.210;2022-08-01T16:17:13;29.00;99.90
5697;DHT22;2873;50.966;7.210;2022-08-01T16:19:39;29.00;99.90
5697;DHT22;2873;50.966;7.210;2022-08-01T16:22:05;28.90;99.90
5697;DHT22;2873;50.966;7.210;2022-08-01T16:24:30;29.00;99.90
5697;DHT22;2873;50.966;7.210;2022-08-01T16:26:56;28.90;99.90
5697;DHT22;2873;50.966;7.210;2022-08-01T16:29:22;28.80;99.90
5697;DHT22;2873;50.966;7.210;2022-08-01T16:31:48;28.90;99.90
5697;DHT22;2873;50.966;7.210;2022-08-01T16:34:13;28.80;99.90
5697;DHT22;2873;50.966;7.210;2022-08-01T16:36:39;28.80;99.90
5697;DHT22;2873;50.966;7.210;2022-08-01T16:39:04;28.70;99.90
5697;DHT22;2873;50.966;7.210;2022-08-01T16:41:32;28.80;99.90